sensor_id;sensor_type;location;lat;lon;timestamp;pressure;altitude;pressure_sealevel;temperature;humidity
58385;BME280;44185;47.844;8.966;2022-12-08T00:00:40;95724.56;;;-0.77;100.00
58385;BME280;44185;47.844;8.966;2022-12-08T00:03:05;95719.50;;;-0.81;100.00
58385;BME280;44185;47.844;8.966;2022-12-08T00:05:31;95716.91;;;-0.81;100.00
58385;BME280;44185;47.844;8.966;2022-12-08T00:07:56;95710.66;;;-0.59;100.00
58385;BME280;44185;47.844;8.966;2022-12-08T00:10:22;95719.06;;;-0.53;100.00
58385;BME280;44185;47.844;8.966;2022-12-08T00:12:47;95708.63;;;-0.89;100.00
58385;BME280;44185;47.844;8.966;2022-12-08T00:15:14;95711.22;;;-1.07;100.00
58385;BME280;44185;47.844;8.966;2022-12-08T00:17:39;95714.34;;;-1.00;100.00
58385;BME280;44185;47.844;8.966;2022-12-08T00:20:06;95708.09;;;-0.96;100.00
58385;BME280;44185;47.844;8.966;2022-12-08T00:22:31;95706.41;;;-0.97;100.00
58385;BME280;44185;47.844;8.966;2022-12-08T00:24:57;95701.34;;;-1.00;100.00
58385;BME280;44185;47.844;8.966;2022-12-08T00:27:23;95699.47;;;-0.79;100.00
58385;BME280;44185;47.844;8.966;2022-12-08T00:29:48;95690.69;;;-0.76;100.00
58385;BME280;44185;47.844;8.966;2022-12-08T00:32:15;95695.13;;;-0.78;100.00
58385;BME280;44185;47.844;8.966;2022-12-08T00:34:41;95689.63;;;-0.72;100.00
58385;BME280;44185;47.844;8.966;2022-12-08T00:37:06;95686.34;;;-0.75;100.00
58385;BME280;44185;47.844;8.966;2022-12-08T00:39:32;95683.81;;;-0.59;100.00
58385;BME280;44185;47.844;8.966;2022-12-08T00:41:57;95678.84;;;-0.64;100.00
58385;BME280;44185;47.844;8.966;2022-12-08T00:44:23;95673.09;;;-0.71;100.00
58385;BME280;44185;47.844;8.966;2022-12-08T00:46:49;95673.63;;;-0.82;100.00
58385;BME280;44185;47.844;8.966;2022-12-08T00:49:16;95666.59;;;-0.80;100.00
58385;BME280;44185;47.844;8.966;2022-12-08T00:51:42;95671.97;;;-0.83;100.00
58385;BME280;44185;47.844;8.966;2022-12-08T00:54:08;95675.09;;;-0.94;100.00
58385;BME280;44185;47.844;8.966;2022-12-08T00:56:34;95673.88;;;-1.04;100.00
58385;BME280;44185;47.844;8.966;2022-12-08T00:59:00;95666.81;;;-1.02;100.00
58385;BME280;44185;47.844;8.966;2022-12-08T01:01:26;95665.53;;;-0.75;100.00
58385;BME280;44185;47.844;8.966;2022-12-08T01:03:52;95665.44;;;-0.74;100.00
58385;BME280;44185;47.844;8.966;2022-12-08T01:06:18;95672.09;;;-0.68;100.00
58385;BME280;44185;47.844;8.966;2022-12-08T01:08:44;95665.00;;;-0.64;100.00
58385;BME280;44185;47.844;8.966;2022-12-08T01:11:12;95663.00;;;-0.77;100.00
58385;BME280;44185;47.844;8.966;2022-12-08T01:13:38;95661.78;;;-0.87;100.00
58385;BME280;44185;47.844;8.966;2022-12-08T01:16:04;95664.00;;;-0.80;100.00
58385;BME280;44185;47.844;8.966;2022-12-08T01:18:29;95656.16;;;-0.78;100.00
58385;BME280;44185;47.844;8.966;2022-12-08T01:21:01;95659.44;;;-0.74;100.00
58385;BME280;44185;47.844;8.966;2022-12-08T01:23:28;95656.66;;;-0.71;100.00
58385;BME280;44185;47.844;8.966;2022-12-08T01:25:53;95657.75;;;-0.75;100.00
58385;BME280;44185;47.844;8.966;2022-12-08T01:28:19;95651.41;;;-0.70;100.00
58385;BME280;44185;47.844;8.966;2022-12-08T01:30:44;95656.13;;;-0.60;100.00
58385;BME280;44185;47.844;8.966;2022-12-08T01:33:10;95647.72;;;-0.65;100.00
58385;BME280;44185;47.844;8.966;2022-12-08T01:35:35;95644.38;;;-0.68;100.00
58385;BME280;44185;47.844;8.966;2022-12-08T01:38:00;95643.44;;;-0.49;100.00
58385;BME280;44185;47.844;8.966;2022-12-08T01:40:27;95644.28;;;-0.66;100.00
58385;BME280;44185;47.844;8.966;2022-12-08T01:42:53;95646.59;;;-0.77;100.00
58385;BME280;44185;47.844;8.966;2022-12-08T01:45:22;95640.41;;;-0.75;100.00
58385;BME280;44185;47.844;8.966;2022-12-08T01:47:54;95633.69;;;-0.61;100.00
58385;BME280;44185;47.844;8.966;2022-12-08T01:50:21;95635.97;;;-0.73;100.00
58385;BME280;44185;47.844;8.966;2022-12-08T01:52:49;95635.81;;;-1.05;100.00
58385;BME280;44185;47.844;8.966;2022-12-08T01:55:19;95640.53;;;-1.14;100.00
58385;BME280;44185;47.844;8.966;2022-12-08T01:57:51;95634.41;;;-1.30;100.00
58385;BME280;44185;47.844;8.966;2022-12-08T02:00:19;95628.38;;;-1.31;100.00
58385;BME280;44185;47.844;8.966;2022-12-08T02:02:51;95629.91;;;-1.27;100.00
58385;BME280;44185;47.844;8.966;2022-12-08T02:05:18;95629.84;;;-1.25;100.00
58385;BME280;44185;47.844;8.966;2022-12-08T02:07:45;95632.50;;;-1.27;100.00
58385;BME280;44185;47.844;8.966;2022-12-08T02:10:13;95633.13;;;-1.21;100.00
58385;BME280;44185;47.844;8.966;2022-12-08T02:12:40;95630.94;;;-1.12;100.00
58385;BME280;44185;47.844;8.966;2022-12-08T02:15:11;95623.28;;;-1.15;100.00
58385;BME280;44185;47.844;8.966;2022-12-08T02:17:48;95625.41;;;-0.87;100.00
58385;BME280;44185;47.844;8.966;2022-12-08T02:23:03;95607.78;;;-0.98;100.00
58385;BME280;44185;47.844;8.966;2022-12-08T02:25:40;95612.75;;;-1.12;100.00
58385;BME280;44185;47.844;8.966;2022-12-08T02:28:31;95607.38;;;-1.26;100.00
58385;BME280;44185;47.844;8.966;2022-12-08T02:31:10;95604.31;;;-1.17;100.00
58385;BME280;44185;47.844;8.966;2022-12-08T02:34:00;95613.28;;;-1.23;100.00
58385;BME280;44185;47.844;8.966;2022-12-08T02:36:33;95614.53;;;-1.49;100.00
58385;BME280;44185;47.844;8.966;2022-12-08T02:39:09;95609.59;;;-1.36;100.00
58385;BME280;44185;47.844;8.966;2022-12-08T02:41:40;95606.84;;;-1.33;100.00
58385;BME280;44185;47.844;8.966;2022-12-08T02:44:15;95608.75;;;-1.37;100.00
58385;BME280;44185;47.844;8.966;2022-12-08T02:46:48;95607.63;;;-1.31;100.00
58385;BME280;44185;47.844;8.966;2022-12-08T02:49:17;95606.47;;;-1.25;100.00
58385;BME280;44185;47.844;8.966;2022-12-08T02:51:42;95601.56;;;-1.14;100.00
58385;BME280;44185;47.844;8.966;2022-12-08T02:54:08;95604.69;;;-1.25;100.00
58385;BME280;44185;47.844;8.966;2022-12-08T02:56:45;95601.72;;;-1.35;100.00
58385;BME280;44185;47.844;8.966;2022-12-08T02:59:35;95598.50;;;-1.40;100.00
58385;BME280;44185;47.844;8.966;2022-12-08T03:02:13;95590.50;;;-1.35;100.00
58385;BME280;44185;47.844;8.966;2022-12-08T03:04:44;95588.88;;;-1.38;100.00
58385;BME280;44185;47.844;8.966;2022-12-08T03:07:14;95584.59;;;-1.57;100.00
58385;BME280;44185;47.844;8.966;2022-12-08T03:09:47;95572.31;;;-1.35;100.00
58385;BME280;44185;47.844;8.966;2022-12-08T03:12:17;95573.31;;;-1.38;100.00
58385;BME280;44185;47.844;8.966;2022-12-08T03:14:46;95576.22;;;-1.26;100.00
58385;BME280;44185;47.844;8.966;2022-12-08T03:17:13;95589.59;;;-1.34;100.00
58385;BME280;44185;47.844;8.966;2022-12-08T03:19:42;95573.09;;;-1.15;100.00
58385;BME280;44185;47.844;8.966;2022-12-08T03:22:11;95569.44;;;-1.29;100.00
58385;BME280;44185;47.844;8.966;2022-12-08T03:24:40;95569.06;;;-1.39;100.00
58385;BME280;44185;47.844;8.966;2022-12-08T03:27:09;95563.84;;;-1.21;100.00
58385;BME280;44185;47.844;8.966;2022-12-08T03:29:36;95572.94;;;-1.30;100.00
58385;BME280;44185;47.844;8.966;2022-12-08T03:32:12;95572.06;;;-1.48;100.00
58385;BME280;44185;47.844;8.966;2022-12-08T03:34:43;95574.38;;;-1.24;100.00
58385;BME280;44185;47.844;8.966;2022-12-08T03:37:11;95572.41;;;-1.37;100.00
58385;BME280;44185;47.844;8.966;2022-12-08T03:39:37;95571.88;;;-1.43;100.00
58385;BME280;44185;47.844;8.966;2022-12-08T03:42:02;95559.94;;;-1.30;100.00
58385;BME280;44185;47.844;8.966;2022-12-08T03:44:28;95551.34;;;-1.30;100.00
58385;BME280;44185;47.844;8.966;2022-12-08T03:46:53;95549.66;;;-1.31;100.00
58385;BME280;44185;47.844;8.966;2022-12-08T03:49:19;95546.06;;;-1.29;100.00
58385;BME280;44185;47.844;8.966;2022-12-08T03:51:45;95540.72;;;-1.26;100.00
58385;BME280;44185;47.844;8.966;2022-12-08T03:54:11;95532.84;;;-1.24;100.00
58385;BME280;44185;47.844;8.966;2022-12-08T03:56:37;95532.09;;;-1.44;100.00
58385;BME280;44185;47.844;8.966;2022-12-08T03:59:04;95536.81;;;-1.35;100.00
58385;BME280;44185;47.844;8.966;2022-12-08T04:01:30;95531.09;;;-1.41;100.00
58385;BME280;44185;47.844;8.966;2022-12-08T04:03:55;95531.34;;;-1.46;100.00
58385;BME280;44185;47.844;8.966;2022-12-08T04:06:21;95530.94;;;-1.56;100.00
58385;BME280;44185;47.844;8.966;2022-12-08T04:08:49;95531.03;;;-1.40;100.00
58385;BME280;44185;47.844;8.966;2022-12-08T04:11:15;95527.56;;;-1.40;100.00
58385;BME280;44185;47.844;8.966;2022-12-08T04:13:41;95523.16;;;-1.20;100.00
58385;BME280;44185;47.844;8.966;2022-12-08T04:16:07;95528.31;;;-1.03;100.00
58385;BME280;44185;47.844;8.966;2022-12-08T04:18:33;95528.34;;;-1.20;100.00
58385;BME280;44185;47.844;8.966;2022-12-08T04:20:59;95528.66;;;-1.09;100.00
58385;BME280;44185;47.844;8.966;2022-12-08T04:23:24;95527.41;;;-1.19;100.00
58385;BME280;44185;47.844;8.966;2022-12-08T04:25:51;95530.09;;;-1.21;100.00
58385;BME280;44185;47.844;8.966;2022-12-08T04:28:17;95514.22;;;-1.32;100.00
58385;BME280;44185;47.844;8.966;2022-12-08T04:30:42;95529.66;;;-1.47;100.00
58385;BME280;44185;47.844;8.966;2022-12-08T04:33:08;95513.84;;;-1.60;100.00
58385;BME280;44185;47.844;8.966;2022-12-08T04:35:34;95511.63;;;-1.32;100.00
58385;BME280;44185;47.844;8.966;2022-12-08T04:37:59;95511.63;;;-1.32;100.00
58385;BME280;44185;47.844;8.966;2022-12-08T04:40:25;95515.44;;;-1.22;100.00
58385;BME280;44185;47.844;8.966;2022-12-08T04:42:52;95520.25;;;-1.32;100.00
58385;BME280;44185;47.844;8.966;2022-12-08T04:45:17;95523.56;;;-1.46;100.00
58385;BME280;44185;47.844;8.966;2022-12-08T04:47:43;95518.19;;;-1.61;100.00
58385;BME280;44185;47.844;8.966;2022-12-08T04:50:09;95509.72;;;-1.29;100.00
58385;BME280;44185;47.844;8.966;2022-12-08T04:52:35;95501.41;;;-1.18;100.00
58385;BME280;44185;47.844;8.966;2022-12-08T04:55:01;95505.75;;;-1.18;100.00
58385;BME280;44185;47.844;8.966;2022-12-08T04:57:27;95510.13;;;-1.54;100.00
58385;BME280;44185;47.844;8.966;2022-12-08T04:59:54;95514.28;;;-1.70;100.00
58385;BME280;44185;47.844;8.966;2022-12-08T05:02:19;95521.00;;;-1.83;100.00
58385;BME280;44185;47.844;8.966;2022-12-08T05:04:45;95516.81;;;-1.68;100.00
58385;BME280;44185;47.844;8.966;2022-12-08T05:07:10;95513.75;;;-1.59;100.00
58385;BME280;44185;47.844;8.966;2022-12-08T05:09:36;95514.94;;;-1.47;100.00
58385;BME280;44185;47.844;8.966;2022-12-08T05:12:01;95503.91;;;-1.16;100.00
58385;BME280;44185;47.844;8.966;2022-12-08T05:14:26;95500.63;;;-1.20;100.00
58385;BME280;44185;47.844;8.966;2022-12-08T05:16:53;95502.09;;;-1.14;100.00
58385;BME280;44185;47.844;8.966;2022-12-08T05:19:19;95503.44;;;-1.25;100.00
58385;BME280;44185;47.844;8.966;2022-12-08T05:21:44;95497.28;;;-1.40;100.00
58385;BME280;44185;47.844;8.966;2022-12-08T05:24:10;95497.09;;;-1.19;100.00
58385;BME280;44185;47.844;8.966;2022-12-08T05:26:35;95491.69;;;-1.14;100.00
58385;BME280;44185;47.844;8.966;2022-12-08T05:29:01;95500.16;;;-1.10;100.00
58385;BME280;44185;47.844;8.966;2022-12-08T05:31:26;95505.81;;;-1.38;100.00
58385;BME280;44185;47.844;8.966;2022-12-08T05:33:53;95500.09;;;-1.27;100.00
58385;BME280;44185;47.844;8.966;2022-12-08T05:36:19;95493.16;;;-1.26;100.00
58385;BME280;44185;47.844;8.966;2022-12-08T05:38:45;95494.22;;;-1.30;100.00
58385;BME280;44185;47.844;8.966;2022-12-08T05:41:13;95496.34;;;-1.21;100.00
58385;BME280;44185;47.844;8.966;2022-12-08T05:43:38;95490.00;;;-1.15;100.00
58385;BME280;44185;47.844;8.966;2022-12-08T05:46:04;95487.66;;;-1.20;100.00
58385;BME280;44185;47.844;8.966;2022-12-08T05:48:31;95489.81;;;-1.28;100.00
58385;BME280;44185;47.844;8.966;2022-12-08T05:50:58;95483.22;;;-1.18;100.00
58385;BME280;44185;47.844;8.966;2022-12-08T05:53:23;95486.03;;;-1.05;100.00
58385;BME280;44185;47.844;8.966;2022-12-08T05:55:49;95494.06;;;-1.09;100.00
58385;BME280;44185;47.844;8.966;2022-12-08T05:58:16;95484.66;;;-0.78;100.00
58385;BME280;44185;47.844;8.966;2022-12-08T06:00:42;95486.88;;;-1.04;100.00
58385;BME280;44185;47.844;8.966;2022-12-08T06:03:07;95488.41;;;-1.18;100.00
58385;BME280;44185;47.844;8.966;2022-12-08T06:05:34;95478.31;;;-1.24;100.00
58385;BME280;44185;47.844;8.966;2022-12-08T06:08:01;95486.25;;;-1.27;100.00
58385;BME280;44185;47.844;8.966;2022-12-08T06:10:27;95485.97;;;-1.21;100.00
58385;BME280;44185;47.844;8.966;2022-12-08T06:12:53;95482.28;;;-1.17;100.00
58385;BME280;44185;47.844;8.966;2022-12-08T06:15:18;95477.38;;;-1.05;100.00
58385;BME280;44185;47.844;8.966;2022-12-08T06:17:44;95484.63;;;-0.94;100.00
58385;BME280;44185;47.844;8.966;2022-12-08T06:20:10;95480.81;;;-0.71;100.00
58385;BME280;44185;47.844;8.966;2022-12-08T06:22:35;95483.41;;;-1.05;100.00
58385;BME280;44185;47.844;8.966;2022-12-08T06:25:03;95475.72;;;-1.24;100.00
58385;BME280;44185;47.844;8.966;2022-12-08T06:27:29;95481.06;;;-1.09;100.00
58385;BME280;44185;47.844;8.966;2022-12-08T06:29:54;95475.28;;;-1.15;100.00
58385;BME280;44185;47.844;8.966;2022-12-08T06:32:20;95481.53;;;-1.01;100.00
58385;BME280;44185;47.844;8.966;2022-12-08T06:34:45;95480.06;;;-1.07;100.00
58385;BME280;44185;47.844;8.966;2022-12-08T06:37:10;95483.13;;;-1.16;100.00
58385;BME280;44185;47.844;8.966;2022-12-08T06:39:36;95483.22;;;-1.18;100.00
58385;BME280;44185;47.844;8.966;2022-12-08T06:42:03;95485.31;;;-1.08;100.00
58385;BME280;44185;47.844;8.966;2022-12-08T06:44:28;95488.84;;;-1.09;100.00
58385;BME280;44185;47.844;8.966;2022-12-08T06:46:54;95491.47;;;-1.09;100.00
58385;BME280;44185;47.844;8.966;2022-12-08T06:49:19;95498.34;;;-1.26;100.00
58385;BME280;44185;47.844;8.966;2022-12-08T06:51:45;95494.22;;;-1.30;100.00
58385;BME280;44185;47.844;8.966;2022-12-08T06:54:10;95491.63;;;-1.30;100.00
58385;BME280;44185;47.844;8.966;2022-12-08T06:56:36;95495.16;;;-1.49;100.00
58385;BME280;44185;47.844;8.966;2022-12-08T06:59:03;95502.78;;;-1.46;100.00
58385;BME280;44185;47.844;8.966;2022-12-08T07:01:29;95500.78;;;-1.59;100.00
58385;BME280;44185;47.844;8.966;2022-12-08T07:03:54;95498.72;;;-1.70;100.00
58385;BME280;44185;47.844;8.966;2022-12-08T07:06:22;95498.19;;;-1.59;100.00
58385;BME280;44185;47.844;8.966;2022-12-08T07:08:48;95488.56;;;-1.57;100.00
58385;BME280;44185;47.844;8.966;2022-12-08T07:11:13;95491.84;;;-1.53;100.00
58385;BME280;44185;47.844;8.966;2022-12-08T07:13:39;95493.09;;;-1.60;100.00
58385;BME280;44185;47.844;8.966;2022-12-08T07:16:07;95490.34;;;-1.57;100.00
58385;BME280;44185;47.844;8.966;2022-12-08T07:18:33;95500.09;;;-1.44;100.00
58385;BME280;44185;47.844;8.966;2022-12-08T07:21:02;95493.38;;;-1.66;100.00
58385;BME280;44185;47.844;8.966;2022-12-08T07:23:27;95491.63;;;-1.66;100.00
58385;BME280;44185;47.844;8.966;2022-12-08T07:25:53;95493.00;;;-1.76;100.00
58385;BME280;44185;47.844;8.966;2022-12-08T07:28:18;95501.88;;;-1.63;100.00
58385;BME280;44185;47.844;8.966;2022-12-08T07:30:44;95503.91;;;-1.70;100.00
58385;BME280;44185;47.844;8.966;2022-12-08T07:33:11;95504.28;;;-1.77;100.00
58385;BME280;44185;47.844;8.966;2022-12-08T07:35:36;95501.31;;;-1.70;100.00
58385;BME280;44185;47.844;8.966;2022-12-08T07:38:02;95508.66;;;-1.78;100.00
58385;BME280;44185;47.844;8.966;2022-12-08T07:40:27;95520.91;;;-1.82;100.00
58385;BME280;44185;47.844;8.966;2022-12-08T07:42:53;95506.59;;;-1.71;100.00
58385;BME280;44185;47.844;8.966;2022-12-08T07:45:18;95512.25;;;-1.63;100.00
58385;BME280;44185;47.844;8.966;2022-12-08T07:47:44;95513.09;;;-1.62;100.00
58385;BME280;44185;47.844;8.966;2022-12-08T07:50:11;95511.25;;;-1.60;100.00
58385;BME280;44185;47.844;8.966;2022-12-08T07:52:36;95504.13;;;-1.57;100.00
58385;BME280;44185;47.844;8.966;2022-12-08T07:55:02;95504.47;;;-1.63;100.00
58385;BME280;44185;47.844;8.966;2022-12-08T07:57:27;95503.94;;;-1.52;100.00
58385;BME280;44185;47.844;8.966;2022-12-08T07:59:53;95497.00;;;-1.51;100.00
58385;BME280;44185;47.844;8.966;2022-12-08T08:02:19;95501.63;;;-1.40;100.00
58385;BME280;44185;47.844;8.966;2022-12-08T08:04:44;95506.81;;;-1.40;100.00
58385;BME280;44185;47.844;8.966;2022-12-08T08:07:14;95510.94;;;-1.36;100.00
58385;BME280;44185;47.844;8.966;2022-12-08T08:09:40;95500.44;;;-1.33;100.00
58385;BME280;44185;47.844;8.966;2022-12-08T08:12:05;95502.16;;;-1.33;100.00
58385;BME280;44185;47.844;8.966;2022-12-08T08:14:31;95504.38;;;-1.26;100.00
58385;BME280;44185;47.844;8.966;2022-12-08T08:16:56;95504.78;;;-1.33;100.00
58385;BME280;44185;47.844;8.966;2022-12-08T08:19:22;95510.81;;;-1.33;100.00
58385;BME280;44185;47.844;8.966;2022-12-08T08:21:47;95497.59;;;-1.28;100.00
58385;BME280;44185;47.844;8.966;2022-12-08T08:24:14;95492.47;;;-1.12;100.00
58385;BME280;44185;47.844;8.966;2022-12-08T08:26:39;95496.50;;;-1.24;100.00
58385;BME280;44185;47.844;8.966;2022-12-08T08:29:05;95494.44;;;-1.17;100.00
58385;BME280;44185;47.844;8.966;2022-12-08T08:31:30;95481.97;;;-1.10;100.00
58385;BME280;44185;47.844;8.966;2022-12-08T08:33:56;95491.75;;;-1.16;100.00
58385;BME280;44185;47.844;8.966;2022-12-08T08:36:21;95480.81;;;-1.05;100.00
58385;BME280;44185;47.844;8.966;2022-12-08T08:38:47;95490.53;;;-1.08;100.00
58385;BME280;44185;47.844;8.966;2022-12-08T08:41:13;95487.53;;;-1.01;100.00
58385;BME280;44185;47.844;8.966;2022-12-08T08:43:39;95494.75;;;-0.90;100.00
58385;BME280;44185;47.844;8.966;2022-12-08T08:46:05;95485.13;;;-0.87;100.00
58385;BME280;44185;47.844;8.966;2022-12-08T08:48:32;95486.56;;;-0.82;100.00
58385;BME280;44185;47.844;8.966;2022-12-08T08:50:58;95488.72;;;-0.90;100.00
58385;BME280;44185;47.844;8.966;2022-12-08T08:53:30;95486.91;;;-0.88;100.00
58385;BME280;44185;47.844;8.966;2022-12-08T08:55:55;95493.00;;;-0.89;100.00
58385;BME280;44185;47.844;8.966;2022-12-08T08:58:22;95498.13;;;-0.87;100.00
58385;BME280;44185;47.844;8.966;2022-12-08T09:00:47;95493.72;;;-0.85;100.00
58385;BME280;44185;47.844;8.966;2022-12-08T09:03:13;95486.09;;;-0.72;100.00
58385;BME280;44185;47.844;8.966;2022-12-08T09:05:38;95484.94;;;-0.66;100.00
58385;BME280;44185;47.844;8.966;2022-12-08T09:08:04;95488.19;;;-0.63;100.00
58385;BME280;44185;47.844;8.966;2022-12-08T09:10:29;95486.94;;;-0.56;100.00
58385;BME280;44185;47.844;8.966;2022-12-08T09:12:55;95484.94;;;-0.50;100.00
58385;BME280;44185;47.844;8.966;2022-12-08T09:15:21;95485.88;;;-0.51;100.00
58385;BME280;44185;47.844;8.966;2022-12-08T09:17:47;95489.06;;;-0.46;100.00
58385;BME280;44185;47.844;8.966;2022-12-08T09:20:12;95488.97;;;-0.45;100.00
58385;BME280;44185;47.844;8.966;2022-12-08T09:22:38;95486.78;;;-0.36;100.00
58385;BME280;44185;47.844;8.966;2022-12-08T09:25:04;95490.34;;;-0.37;100.00
58385;BME280;44185;47.844;8.966;2022-12-08T09:27:30;95485.72;;;-0.32;100.00
58385;BME280;44185;47.844;8.966;2022-12-08T09:29:55;95484.94;;;-0.34;100.00
58385;BME280;44185;47.844;8.966;2022-12-08T09:32:24;95482.59;;;-0.23;100.00
58385;BME280;44185;47.844;8.966;2022-12-08T09:34:49;95481.16;;;-0.12;100.00
58385;BME280;44185;47.844;8.966;2022-12-08T09:37:15;95483.88;;;-0.14;100.00
58385;BME280;44185;47.844;8.966;2022-12-08T09:39:40;95484.63;;;-0.12;100.00
58385;BME280;44185;47.844;8.966;2022-12-08T09:42:06;95480.25;;;-0.11;100.00
58385;BME280;44185;47.844;8.966;2022-12-08T09:44:39;95475.13;;;-0.13;100.00
58385;BME280;44185;47.844;8.966;2022-12-08T09:47:14;95477.41;;;-0.06;100.00
58385;BME280;44185;47.844;8.966;2022-12-08T09:49:47;95468.25;;;-0.14;100.00
58385;BME280;44185;47.844;8.966;2022-12-08T09:52:19;95465.31;;;-0.07;100.00
58385;BME280;44185;47.844;8.966;2022-12-08T09:54:45;95459.34;;;0.07;100.00
58385;BME280;44185;47.844;8.966;2022-12-08T09:57:18;95453.69;;;0.15;100.00
58385;BME280;44185;47.844;8.966;2022-12-08T09:59:48;95445.03;;;0.14;100.00
58385;BME280;44185;47.844;8.966;2022-12-08T10:02:21;95442.44;;;0.14;100.00
58385;BME280;44185;47.844;8.966;2022-12-08T10:04:48;95443.38;;;0.13;100.00
58385;BME280;44185;47.844;8.966;2022-12-08T10:07:17;95443.69;;;0.23;100.00
58385;BME280;44185;47.844;8.966;2022-12-08T10:09:51;95442.50;;;0.29;100.00
58385;BME280;44185;47.844;8.966;2022-12-08T10:12:25;95433.81;;;0.44;100.00
58385;BME280;44185;47.844;8.966;2022-12-08T10:14:57;95428.31;;;0.49;100.00
58385;BME280;44185;47.844;8.966;2022-12-08T10:17:29;95428.59;;;0.44;100.00
58385;BME280;44185;47.844;8.966;2022-12-08T10:19:59;95420.97;;;0.56;100.00
58385;BME280;44185;47.844;8.966;2022-12-08T10:22:31;95424.25;;;0.60;100.00
58385;BME280;44185;47.844;8.966;2022-12-08T10:24:59;95419.72;;;0.63;100.00
58385;BME280;44185;47.844;8.966;2022-12-08T10:27:28;95417.91;;;0.64;100.00
58385;BME280;44185;47.844;8.966;2022-12-08T10:29:54;95414.50;;;0.63;100.00
58385;BME280;44185;47.844;8.966;2022-12-08T10:32:21;95408.81;;;0.71;100.00
58385;BME280;44185;47.844;8.966;2022-12-08T10:35:05;95410.47;;;0.72;100.00
58385;BME280;44185;47.844;8.966;2022-12-08T10:37:30;95407.53;;;0.79;100.00
58385;BME280;44185;47.844;8.966;2022-12-08T10:40:00;95400.16;;;0.85;100.00
58385;BME280;44185;47.844;8.966;2022-12-08T10:42:35;95397.78;;;0.82;100.00
58385;BME280;44185;47.844;8.966;2022-12-08T10:45:14;95394.59;;;0.92;100.00
58385;BME280;44185;47.844;8.966;2022-12-08T10:47:42;95393.56;;;0.94;100.00
58385;BME280;44185;47.844;8.966;2022-12-08T10:50:26;95390.13;;;0.94;100.00
58385;BME280;44185;47.844;8.966;2022-12-08T10:52:54;95388.53;;;0.91;100.00
58385;BME280;44185;47.844;8.966;2022-12-08T10:55:20;95383.59;;;1.01;100.00
58385;BME280;44185;47.844;8.966;2022-12-08T10:57:46;95383.81;;;0.98;99.13
58385;BME280;44185;47.844;8.966;2022-12-08T11:00:13;95375.03;;;0.99;96.88
58385;BME280;44185;47.844;8.966;2022-12-08T11:02:52;95377.09;;;0.94;99.21
58385;BME280;44185;47.844;8.966;2022-12-08T11:05:19;95368.97;;;1.13;100.00
58385;BME280;44185;47.844;8.966;2022-12-08T11:07:49;95375.19;;;1.25;100.00
58385;BME280;44185;47.844;8.966;2022-12-08T11:10:16;95378.75;;;1.24;98.89
58385;BME280;44185;47.844;8.966;2022-12-08T11:12:43;95371.91;;;1.36;98.90
58385;BME280;44185;47.844;8.966;2022-12-08T11:15:13;95365.66;;;1.39;98.57
58385;BME280;44185;47.844;8.966;2022-12-08T11:17:40;95363.72;;;1.42;98.13
58385;BME280;44185;47.844;8.966;2022-12-08T11:20:19;95356.19;;;1.38;94.87
58385;BME280;44185;47.844;8.966;2022-12-08T11:22:50;95348.41;;;1.51;95.07
58385;BME280;44185;47.844;8.966;2022-12-08T11:25:17;95345.19;;;1.60;86.24
58385;BME280;44185;47.844;8.966;2022-12-08T11:27:46;95340.84;;;1.61;84.02
58385;BME280;44185;47.844;8.966;2022-12-08T11:30:13;95344.91;;;1.65;83.79
58385;BME280;44185;47.844;8.966;2022-12-08T11:32:42;95347.13;;;1.43;81.56
58385;BME280;44185;47.844;8.966;2022-12-08T11:35:09;95348.84;;;1.30;81.50
58385;BME280;44185;47.844;8.966;2022-12-08T11:37:41;95341.09;;;1.43;83.36
58385;BME280;44185;47.844;8.966;2022-12-08T11:40:15;95342.59;;;1.60;86.91
58385;BME280;44185;47.844;8.966;2022-12-08T11:42:50;95334.88;;;1.59;79.05
58385;BME280;44185;47.844;8.966;2022-12-08T11:45:22;95340.19;;;1.57;78.53
58385;BME280;44185;47.844;8.966;2022-12-08T11:47:54;95336.53;;;1.60;79.20
58385;BME280;44185;47.844;8.966;2022-12-08T11:50:28;95341.13;;;1.56;78.80
58385;BME280;44185;47.844;8.966;2022-12-08T11:52:54;95334.03;;;1.30;76.52
58385;BME280;44185;47.844;8.966;2022-12-08T11:55:29;95338.44;;;1.15;78.90
58385;BME280;44185;47.844;8.966;2022-12-08T11:58:00;95331.28;;;1.19;79.14
58385;BME280;44185;47.844;8.966;2022-12-08T12:00:28;95325.34;;;1.17;80.10
58385;BME280;44185;47.844;8.966;2022-12-08T12:02:58;95329.06;;;1.13;78.37
58385;BME280;44185;47.844;8.966;2022-12-08T12:05:30;95321.13;;;1.14;78.42
58385;BME280;44185;47.844;8.966;2022-12-08T12:08:09;95321.53;;;1.08;75.01
58385;BME280;44185;47.844;8.966;2022-12-08T12:10:52;95322.72;;;1.17;78.10
58385;BME280;44185;47.844;8.966;2022-12-08T12:13:40;95317.16;;;1.08;74.86
58385;BME280;44185;47.844;8.966;2022-12-08T12:16:40;95322.44;;;1.21;78.17
58385;BME280;44185;47.844;8.966;2022-12-08T12:19:16;95313.03;;;1.19;77.31
58385;BME280;44185;47.844;8.966;2022-12-08T12:21:45;95318.84;;;1.37;81.00
58385;BME280;44185;47.844;8.966;2022-12-08T12:24:17;95311.94;;;1.36;77.53
58385;BME280;44185;47.844;8.966;2022-12-08T12:27:00;95304.53;;;1.30;75.11
58385;BME280;44185;47.844;8.966;2022-12-08T12:29:28;95306.69;;;1.23;78.31
58385;BME280;44185;47.844;8.966;2022-12-08T12:31:56;95298.38;;;1.31;79.47
58385;BME280;44185;47.844;8.966;2022-12-08T12:34:25;95294.34;;;1.40;79.74
58385;BME280;44185;47.844;8.966;2022-12-08T12:36:53;95289.66;;;1.45;78.55
58385;BME280;44185;47.844;8.966;2022-12-08T12:39:22;95290.16;;;1.37;78.30
58385;BME280;44185;47.844;8.966;2022-12-08T12:41:52;95283.56;;;1.31;76.20
58385;BME280;44185;47.844;8.966;2022-12-08T12:47:03;95277.59;;;1.02;77.65
58385;BME280;44185;47.844;8.966;2022-12-08T12:50:03;95282.31;;;1.24;82.41
58385;BME280;44185;47.844;8.966;2022-12-08T12:52:39;95280.00;;;1.19;76.61
58385;BME280;44185;47.844;8.966;2022-12-08T12:58:22;95282.69;;;1.46;76.89
58385;BME280;44185;47.844;8.966;2022-12-08T13:04:03;95258.25;;;2.14;75.32
58385;BME280;44185;47.844;8.966;2022-12-08T13:06:32;95258.47;;;2.24;72.54
58385;BME280;44185;47.844;8.966;2022-12-08T13:08:59;95263.56;;;2.51;75.87
58385;BME280;44185;47.844;8.966;2022-12-08T13:11:25;95274.66;;;2.29;76.56